Alex Barbosa

Scout - Santos
25 Nov 2027
Thursday
Process

Personality

Adaptability (8) Ambition (9) Controversy (17) Loyalty (19) Pressure (13) Professionalism (10) Sportsmanship (1) Temperament (20)

Profile

Coaching Style Democratic
License Continental A
Determination 12
Man Management 7
Motivating 6
Discipline 10
Job Satisfaction
58%
Fatigue
0%
Role Scout
Wage 29.4K p/w
Contract 14.03.2029

Performance

Behaviour Good
Training Effectiveness
34%
Player Development
40%
Injury Prevention
25%
Tactical Implementation
35%

Recent Events

Attended a recruitment meeting now
Recommended a transfer target now
Attended a recruitment meeting now
Attended a recruitment meeting 7d ago
Recommended a transfer target 7d ago
Attended a recruitment meeting 7d ago
Attended a recruitment meeting 7d ago
Attended a recruitment meeting 7d ago

Currently Monitoring

134
Player Club Status Ability Confidence Watched Last Observed Latest Vote
Ferreirinha Sport Recife Active 130 / 124 65% 1 05.07.2027 Approve
Callum Brittain Middlesbrough Active 137 / 143 40% 1 31.05.2027 -
Sorba Thomas Stoke City Active 130 / 143 40% 3 29.05.2027 -
Jacob Ramsey Newcastle United Active 153 / 165 40% 1 29.05.2027 -
Amine Adli Bournemouth Active 150 / 129 40% 1 28.05.2027 -
Kiernan Dewsbury-Hall Everton Active 164 / 160 40% 2 27.05.2027 -
James Maddison Tottenham Active 172 / 166 40% 1 27.05.2027 -
Nordi Mukiele Sunderland Active 156 / 130 40% 1 27.05.2027 -
Jacques Ekomié Wrexham Active 136 / 132 40% 1 27.05.2027 -
Kevin Fulham Active 149 / 158 40% 3 25.05.2027 -
Will Lankshear Middlesbrough Active 117 / 125 40% 1 25.05.2027 -
Bojan Radulović Huddersfield Town Active 115 / 121 40% 1 25.05.2027 -
Curtis Jones Inter Active 157 / 166 40% 3 23.05.2027 -
Francisco Conceição Juventus Active 162 / 155 40% 1 23.05.2027 Needs More Info
Anton Stach Leeds United Active 151 / 159 40% 3 22.05.2027 -
Nico González Newcastle United Active 155 / 176 40% 2 22.05.2027 -
Amadou Onana Aston Villa Active 165 / 172 40% 2 21.05.2027 -
Quinten Timber Crystal Palace Active 149 / 158 40% 1 21.05.2027 -
Benjamin White Arsenal Active 148 / 149 40% 2 20.05.2027 -
Igor Burnley Active 155 / 133 40% 1 20.05.2027 -
Kenan Yıldız Juventus Active 164 / 154 40% 1 19.05.2027 Needs More Info
Finn Azaz Southampton Active 118 / 138 40% 4 18.05.2027 -
Dango Ouattara Brentford Active 146 / 148 40% 4 18.05.2027 -
Morgan Whittaker Middlesbrough Active 145 / 142 40% 3 17.05.2027 -
Dávid Strelec Middlesbrough Active 130 / 151 40% 1 17.05.2027 -
Tom Cannon Sheffield United Active 143 / 121 40% 1 17.05.2027 -
Óscar Mingueza Crystal Palace Active 150 / 158 40% 1 15.05.2027 -
Toby Collyer West Bromwich Albion Active 145 / 119 40% 2 14.05.2027 -
Jan Paul van Hecke Tottenham Active 155 / 141 40% 2 14.05.2027 -
Léo Scienza Southampton Active 140 / 139 40% 1 14.05.2027 -
Callum Doyle Wrexham Active 118 / 149 40% 1 12.05.2027 -
Georginio Rutter Brighton Active 157 / 164 40% 2 10.05.2027 -
Kerem Aktürkoğlu Fenerbahce Active 152 / 155 40% 1 09.05.2027 -
Aune Heggebø West Bromwich Albion Active 120 / 129 40% 6 05.05.2027 -
Luis Vázquez Birmingham Active 128 / 135 40% 2 05.05.2027 -
Japhet Tanganga Sheffield United Active 131 / 128 40% 2 01.05.2027 -
Ryan Sessegnon Fulham Active 153 / 148 40% 1 29.04.2027 -
Borja Sainz Fiorentina Active 150 / 127 40% 4 26.04.2027 -
Ilyas Ansah Hull City Active 129 / 117 40% 1 26.04.2027 -
Víctor Dávila Club America Active 128 / 147 40% 1 23.04.2027 -
Sergi Altimira Sporting CP Active 127 / 131 40% 2 22.04.2027 -
Rodrigo Zalazar Sporting CP Active 144 / 142 40% 3 21.04.2027 -
Xavi Simons Tottenham Active 150 / 140 40% 1 21.04.2027 -
Pau Víctor AVS Active 133 / 137 40% 5 19.04.2027 -
Hwang In-Beom Porto Active 150 / 137 40% 2 19.04.2027 -
Thiago Brentford Active 156 / 150 40% 1 19.04.2027 -
Iván Fresneda Sporting CP Active 131 / 140 40% 7 18.04.2027 -
Jake O'Brien Everton Active 141 / 154 40% 1 15.04.2027 -
Kyle Walker-Peters West Ham United Active 146 / 142 40% 6 13.04.2027 -
Jesús Angulo Tigres Active 133 / 119 40% 4 13.04.2027 -
Sikou Niakaté Braga Active 143 / 132 40% 3 10.04.2027 -
Luke McNally Bristol City Active 120 / 136 40% 1 10.04.2027 -
Ethan Galbraith Swansea City Active 147 / 120 40% 1 08.04.2027 -
Víctor Gómez Braga Active 132 / 155 40% 1 08.04.2027 -
Ozziel Herrera Tigres Active 143 / 134 40% 2 07.04.2027 -
Brian Rodríguez Club America Active 117 / 113 40% 1 07.04.2027 -
Riley McGree Middlesbrough Active 122 / 125 40% 1 06.04.2027 -
Agustín Palavecino Cruz Azul Active 134 / 135 40% 3 04.04.2027 -
João Simões Sporting CP Active 142 / 138 40% 2 03.04.2027 -
Jesús Ricardo Angulo Toluca Active 146 / 123 40% 1 03.04.2027 -
Roberto Fernández Braga Active 140 / 128 40% 5 02.04.2027 -
Pepê Porto Active 154 / 147 40% 2 02.04.2027 -
Figueiredo Alverca Active 128 / 113 40% 3 30.03.2027 -
Tomás Araújo Benfica Active 145 / 151 40% 2 30.03.2027 -
Jhon Arias Palmeiras Active 139 / 140 40% 1 28.03.2027 -
Rafik Guitane Estoril Praia Active 120 / 137 40% 1 27.03.2027 -
Andrea Pinamonti Lazio Active 137 / 140 40% 1 27.03.2027 -
Richard Koné Queens Park Rangers Active 127 / 126 40% 1 27.03.2027 -
Gonçalo Inácio Sporting CP Active 144 / 138 40% 4 25.03.2027 -
Max Bird Birmingham Active 118 / 145 40% 1 25.03.2027 -
Nicolás Fernández Mercau Shakhtar Active 146 / 147 40% 1 25.03.2027 -
Razvan Balasa Crvena Zvezda Active 149 / 164 40% 2 23.03.2027 -
Joaquín Panichelli Le Havre AC Active 149 / 156 40% 1 23.03.2027 -
Gianluca Prestianni Benfica Active 149 / 154 40% 2 19.03.2027 -
Javi Sánchez Arouca Active 135 / 132 40% 2 18.03.2027 -
Welington Southampton Active 146 / 144 40% 1 18.03.2027 -
Milan van Ewijk Mansfield Town Active 133 / 123 40% 1 16.03.2027 -
Bright Arrey-Mbi Braga Active 148 / 123 40% 1 14.03.2027 -
Jalen Blesa Rio Ave Active 127 / 131 40% 2 10.03.2027 -
Duk Atlas Active 130 / 107 40% 1 10.03.2027 -
Dawda Camara Alverca Active 115 / 118 40% 1 07.03.2027 -
Evidence Makgopa Orlando Pirates Active 100 / 128 40% 1 06.03.2027 -
Robert Mizo Ashanti Gold Active 101 / 111 40% 1 06.03.2027 -
Zeno Debast Sporting CP Active 147 / 159 40% 2 04.03.2027 -
Dylan Nandín Arouca Active 118 / 105 40% 1 04.03.2027 -
Alberto Costa Porto Active 147 / 145 40% 1 04.03.2027 -
Luís Esteves Atlas Active 120 / 118 40% 1 28.02.2027 -
Lucas Duarte Felgueiras Active 106 / 120 40% 1 24.02.2027 -
Martín Tejón Maritimo Active 108 / 135 40% 2 23.02.2027 -
Henrique Araújo Casa Pia Active 112 / 109 40% 2 23.02.2027 -
Gabriel Veron Porto Active 130 / 133 40% 3 20.02.2027 -
Gerardo Arteaga Monterrey Active 147 / 127 40% 1 12.02.2027 -
Aidan Morris Middlesbrough Active 143 / 142 40% 1 10.02.2027 -
Jan Bednarek Porto Active 134 / 146 40% 1 09.02.2027 -
José Hurtado Bragantino Active 121 / 129 40% 1 03.02.2027 -
Ianis Stoica Estrela da Amadora Active 127 / 103 40% 1 02.02.2027 -
Lucas Ramon Sport Recife Active 113 / 136 55% 1 28.12.2026 -
Toni Tamarit Alverca Active 99 / 106 40% 1 25.11.2026 -
Ainsley Maitland-Niles Everton Active 135 / 143 40% 1 25.11.2026 -
Themba Ngcobo SuperSport United Active 133 / 99 40% 1 25.11.2026 -
Alfonso Trezza Arouca Active 118 / 121 40% 4 23.11.2026 -
Wilson Isidor Sunderland Active 121 / 136 40% 1 19.11.2026 -
Christian Krasnodar Active 132 / 124 40% 1 15.11.2026 -
Renan Lodi Atlético Mineiro Active 147 / 135 40% 1 14.11.2026 -
Adam Wharton Crystal Palace Active 165 / 163 40% 1 12.11.2026 -
Gonzalo Fulham Active 140 / 152 40% 1 11.11.2026 -
Thorgan Witsel KV Oostende Active 132 / 139 40% 1 02.11.2026 -
Jean Lucas Bahia Active 125 / 121 40% 1 29.10.2026 -
Gustaf Lagerbielke Braga Active 123 / 121 40% 1 27.10.2026 -
Lorent Tolaj Plymouth Argyle Active 122 / 99 40% 1 24.10.2026 -
Manuel Ospina Cortulua Active 130 / 114 40% 2 23.10.2026 -
Zé Leite Leixões Active 122 / 117 40% 2 22.10.2026 -
Nicolò Tresoldi Club Brugge Active 141 / 131 40% 1 15.10.2026 -
Jacob Greaves Ipswich Town Active 138 / 126 40% 1 14.10.2026 -
Wessam Abou Ali Columbus Crew Active 121 / 132 40% 1 11.10.2026 -
Adnan Courtois KV Oostende Active 117 / 132 40% 1 08.10.2026 -
Bénie Traoré New York City Active 119 / 141 40% 1 28.09.2026 -
Guilherme Neiva AVS Active 117 / 115 40% 1 28.09.2026 -
Guilherme Arana Fluminense Active 126 / 143 40% 1 19.09.2026 -
Fally Mayulu Arouca Active 116 / 96 40% 1 10.09.2026 -
Vitinho Internacional Active 131 / 116 40% 1 10.09.2026 -
Victor Froholdt Porto Active 146 / 176 40% 2 08.09.2026 -
Ibrahim Sangaré Nottingham Forest Active 144 / 145 40% 1 08.09.2026 -
Heorhii Sudakov Benfica Active 134 / 133 40% 1 06.09.2026 -
Mathías Villasanti Grêmio Active 124 / 129 40% 1 05.09.2026 -
Alex Scott Bournemouth Active 145 / 152 40% 1 03.09.2026 -
Rémi Lemoine Chamois Niortais Active 170 / 142 40% 1 26.08.2026 Needs More Info
Allan Saint-Maximin Charlotte Football Club Active 136 / 145 40% 1 26.08.2026 -
Luís Guilherme Sporting CP Active 110 / 149 40% 1 19.08.2026 -
Leandro Barreiro Benfica Active 151 / 138 40% 1 10.08.2026 -
Geny Sporting CP Active 139 / 126 40% 1 10.08.2026 -
Yoane Wissa Newcastle United Active 142 / 144 40% 1 06.08.2026 -
Vitor Carvalho Braga Active 136 / 128 40% 1 03.08.2026 -
Pablo Rosario Porto Active 139 / 117 40% 1 01.08.2026 -